Accueil
METAR-TAF:

METAR-TAF

Aéroports :

Wallis, France

Aérodrome de Wallis Hihifo

latitude: 13-14S, longitude: 176-10W, altitude: 23 m

Observation

Le bulletin a été fait il y a 14 heures et 44 minutes, à 14:00 UTC
Vent 4 kt de est/nord-est
Température 26°C
Humidité 84%
Pression 1009 hPa
Visibilité 10 km ou plus

METAR: NLWW 211400Z AUTO 06004KT 9999 NCD 26/23 Q1009 TEMPO 03015KT 4000 SHRA BKN013 SCT025TCU

Heure: 16:44 (04:44 UTC)

Prévision

Le bulletin a été fait il y a 5 heures et 44 minutes, à 23:00 UTC
Prévision valable du 22 à 00 UTC au 22 à 24 UTC
Vent 8 kt de est
Visibilité 10 km ou plus
Nuages épars à une hauteur de 1500 ft
Nuages épars à une hauteur de 3500 ft

TAF: NLWW 212300Z 2200/2224 10008KT 9999 SCT015 SCT035

Observations et prévisions météorologiques de plus de 4000 aéroports (messages METAR et TAF).

Les stations disponibles sont représentées par des disques jaunes et rouges sur la carte.

Passer la souris dessus pour voir le nom de la station.

Cliquer dessus pour voir les observations et prévisions météorologiques.

Pour changer de carte: cliquez sur les boutons verts avec une croix noire pour zoomer, sur le bouton vert avec un tiret pour effectuer un zoom arrière, ou sur les flèches vertes pour les cartes adjacentes.


METAR-TAF: